createdAt,value
2022-10-13T00:00:11.163Z,7.54
2022-10-13T00:02:38.265Z,7.52
2022-10-13T00:05:05.059Z,7.49
2022-10-13T00:07:31.309Z,7.45
2022-10-13T00:09:57.530Z,7.45
2022-10-13T00:12:24.053Z,7.42
2022-10-13T00:14:50.303Z,7.41
2022-10-13T00:17:16.568Z,7.33
2022-10-13T00:19:43.079Z,7.37
2022-10-13T00:22:10.510Z,7.31
2022-10-13T00:24:36.843Z,7.25
2022-10-13T00:27:03.816Z,7.10
2022-10-13T00:29:30.079Z,7.15
2022-10-13T00:31:56.308Z,6.99
2022-10-13T00:34:22.822Z,7.06
2022-10-13T00:36:49.066Z,7.02
2022-10-13T00:39:15.286Z,6.98
2022-10-13T00:41:41.892Z,6.96
2022-10-13T00:44:45.655Z,6.89
2022-10-13T00:47:12.220Z,7.15
2022-10-13T00:49:38.556Z,7.02
2022-10-13T00:52:04.827Z,7.21
2022-10-13T00:54:31.377Z,7.13
2022-10-13T00:56:57.635Z,7.09
2022-10-13T00:59:27.492Z,6.99
2022-10-13T01:01:54.191Z,6.95
2022-10-13T01:04:23.948Z,7.00
2022-10-13T01:06:50.252Z,6.84
2022-10-13T01:09:16.766Z,6.72
2022-10-13T01:12:21.177Z,6.72
2022-10-13T01:15:06.666Z,6.67
2022-10-13T01:17:39.406Z,6.60
2022-10-13T01:20:51.149Z,6.53
2022-10-13T01:23:56.147Z,6.46
2022-10-13T01:27:00.667Z,6.37
2022-10-13T01:29:42.850Z,6.35
2022-10-13T01:32:23.586Z,6.28
2022-10-13T01:34:53.504Z,6.23
2022-10-13T01:37:29.307Z,6.25
2022-10-13T01:40:05.044Z,6.22
2022-10-13T01:42:40.275Z,6.20
2022-10-13T01:45:11.775Z,6.18
2022-10-13T01:47:38.876Z,6.17
2022-10-13T01:50:06.756Z,6.17
2022-10-13T01:52:35.855Z,6.14
2022-10-13T01:55:08.083Z,6.11
2022-10-13T01:57:37.469Z,6.04
2022-10-13T02:00:22.390Z,6.09
2022-10-13T02:03:39.926Z,6.07
2022-10-13T02:06:21.668Z,6.05
2022-10-13T02:08:56.153Z,6.09
2022-10-13T02:11:23.319Z,6.16
2022-10-13T02:14:22.996Z,6.31
2022-10-13T02:16:49.971Z,6.21
2022-10-13T02:19:17.798Z,6.23
2022-10-13T02:21:45.164Z,6.21
2022-10-13T02:24:12.499Z,6.19
2022-10-13T02:26:39.715Z,6.18
2022-10-13T02:29:14.910Z,6.15
2022-10-13T02:31:42.272Z,6.11
2022-10-13T02:34:08.919Z,6.09
2022-10-13T02:36:35.576Z,6.13
2022-10-13T02:39:02.087Z,6.11
2022-10-13T02:41:28.323Z,6.14
2022-10-13T02:43:54.551Z,6.18
2022-10-13T02:46:23.573Z,6.10
2022-10-13T02:48:49.803Z,6.08
2022-10-13T02:51:16.024Z,6.06
2022-10-13T02:53:42.540Z,6.01
2022-10-13T02:56:08.837Z,5.93
2022-10-13T02:58:36.522Z,5.92
2022-10-13T03:01:11.093Z,5.88
2022-10-13T03:03:37.525Z,5.81
2022-10-13T03:06:04.282Z,5.78
2022-10-13T03:08:32.397Z,5.75
2022-10-13T03:10:58.683Z,5.72
2022-10-13T03:13:25.225Z,5.69
2022-10-13T03:15:51.490Z,5.58
2022-10-13T03:18:17.726Z,5.65
2022-10-13T03:20:44.249Z,5.63
2022-10-13T03:23:10.585Z,5.62
2022-10-13T03:25:36.919Z,5.60
2022-10-13T03:28:03.538Z,5.45
2022-10-13T03:30:29.757Z,5.55
2022-10-13T03:32:55.974Z,5.52
2022-10-13T03:35:22.508Z,5.50
2022-10-13T03:37:48.737Z,5.33
2022-10-13T03:40:15.059Z,5.45
2022-10-13T03:42:41.592Z,5.36
2022-10-13T03:45:08.434Z,5.33
2022-10-13T03:47:35.971Z,5.40
2022-10-13T03:50:04.329Z,5.38
2022-10-13T03:52:30.541Z,5.13
2022-10-13T03:54:56.934Z,5.37
2022-10-13T03:57:23.450Z,5.39
2022-10-13T03:59:49.653Z,5.39
2022-10-13T04:02:15.907Z,5.44
2022-10-13T04:04:42.427Z,5.41
2022-10-13T04:07:08.765Z,5.36
2022-10-13T04:09:35.000Z,5.31
2022-10-13T04:12:01.498Z,5.41
2022-10-13T04:14:27.735Z,5.39
2022-10-13T04:16:57.307Z,5.41
2022-10-13T04:19:23.819Z,5.39
2022-10-13T04:21:50.037Z,5.36
2022-10-13T04:24:17.936Z,5.35
2022-10-13T04:26:45.182Z,5.24
2022-10-13T04:29:11.896Z,5.34
2022-10-13T04:31:39.254Z,5.25
2022-10-13T04:34:05.935Z,5.31
2022-10-13T04:36:32.193Z,5.25
2022-10-13T04:38:58.444Z,5.24
2022-10-13T04:41:26.019Z,5.22
2022-10-13T04:43:53.219Z,5.19
2022-10-13T04:46:27.135Z,5.18
2022-10-13T04:48:56.564Z,5.18
2022-10-13T04:51:28.259Z,5.06
2022-10-13T04:54:01.044Z,5.18
2022-10-13T04:56:27.850Z,5.17
2022-10-13T04:58:54.403Z,5.17
2022-10-13T05:01:23.823Z,5.20
2022-10-13T05:03:54.658Z,5.20
2022-10-13T05:06:23.831Z,5.26
2022-10-13T05:08:54.847Z,5.25
2022-10-13T05:11:23.022Z,5.13
2022-10-13T05:13:49.440Z,5.22
2022-10-13T05:16:19.841Z,5.36
2022-10-13T05:18:47.119Z,5.20
2022-10-13T05:21:15.405Z,5.42
2022-10-13T05:23:42.093Z,5.52
2022-10-13T05:26:11.442Z,5.64
2022-10-13T05:28:38.247Z,5.77
2022-10-13T05:31:20.985Z,5.86
2022-10-13T05:33:48.646Z,6.15
2022-10-13T05:36:22.277Z,6.17
2022-10-13T05:38:56.703Z,6.19
2022-10-13T05:41:44.085Z,6.17
2022-10-13T05:44:13.108Z,6.25
2022-10-13T05:46:39.911Z,6.34
2022-10-13T05:49:06.258Z,6.47
2022-10-13T05:51:46.156Z,6.55
2022-10-13T05:54:24.413Z,6.70
2022-10-13T05:56:54.268Z,6.75
2022-10-13T05:59:26.055Z,6.72
2022-10-13T06:01:53.707Z,6.88
2022-10-13T06:04:24.596Z,6.90
2022-10-13T06:06:51.248Z,6.97
2022-10-13T06:09:17.999Z,6.84
2022-10-13T06:11:44.508Z,7.02
2022-10-13T06:14:10.865Z,7.03
2022-10-13T06:16:37.409Z,6.93
2022-10-13T06:19:04.909Z,7.10
2022-10-13T06:21:31.237Z,7.18
2022-10-13T06:23:57.845Z,7.26
2022-10-13T06:26:24.522Z,7.21
2022-10-13T06:28:54.450Z,7.37
2022-10-13T06:31:26.595Z,7.56
2022-10-13T06:33:55.780Z,7.66
2022-10-13T06:36:22.484Z,7.94
2022-10-13T06:38:49.251Z,8.17
2022-10-13T06:41:17.707Z,8.33
2022-10-13T06:43:44.319Z,8.55
2022-10-13T06:46:11.839Z,8.57
2022-10-13T06:48:39.456Z,8.60
2022-10-13T06:51:08.960Z,8.81
2022-10-13T06:53:35.469Z,9.01
2022-10-13T06:56:03.533Z,9.05
2022-10-13T06:58:30.818Z,9.18
2022-10-13T07:00:57.516Z,9.24
2022-10-13T07:03:25.290Z,9.20
2022-10-13T07:05:51.566Z,9.38
2022-10-13T07:08:17.782Z,9.38
2022-10-13T07:10:44.378Z,9.49
2022-10-13T07:13:11.633Z,9.68
2022-10-13T07:15:39.275Z,9.70
2022-10-13T07:18:06.663Z,9.91
2022-10-13T07:20:32.917Z,9.86
2022-10-13T07:22:59.462Z,10.22
2022-10-13T07:25:25.999Z,10.41
2022-10-13T07:27:52.273Z,10.53
2022-10-13T07:30:18.637Z,10.79
2022-10-13T07:32:46.140Z,10.99
2022-10-13T07:35:12.436Z,11.05
2022-10-13T07:37:39.181Z,11.41
2022-10-13T07:40:06.579Z,11.67
2022-10-13T07:42:33.117Z,12.04
2022-10-13T07:44:59.357Z,13.16
2022-10-13T07:47:26.790Z,14.49
2022-10-13T07:49:54.645Z,15.62
2022-10-13T07:52:21.258Z,16.67
2022-10-13T07:54:48.033Z,17.24
2022-10-13T07:57:15.235Z,17.91
2022-10-13T07:59:41.457Z,18.24
2022-10-13T08:02:10.462Z,18.74
2022-10-13T08:04:37.227Z,19.22
2022-10-13T08:07:05.613Z,19.56
2022-10-13T08:09:31.857Z,20.28
2022-10-13T08:12:01.586Z,20.28
2022-10-13T08:14:28.104Z,20.43
2022-10-13T08:16:54.465Z,21.01
2022-10-13T08:19:22.122Z,21.05
2022-10-13T08:22:07.840Z,20.84
2022-10-13T08:24:36.344Z,21.51
2022-10-13T08:27:02.583Z,21.82
2022-10-13T08:29:28.862Z,22.46
2022-10-13T08:31:55.606Z,23.10
2022-10-13T08:34:23.565Z,22.90
2022-10-13T08:36:53.376Z,23.10
2022-10-13T08:39:21.044Z,23.24
2022-10-13T08:41:47.369Z,23.62
2022-10-13T08:47:41.852Z,23.78
2022-10-13T08:50:18.908Z,23.75
2022-10-13T08:52:54.153Z,23.57
2022-10-13T08:55:25.443Z,24.24
2022-10-13T08:57:52.301Z,24.28
2022-10-13T09:00:21.346Z,24.69
2022-10-13T09:02:50.000Z,24.58
2022-10-13T09:05:25.923Z,24.52
2022-10-13T09:07:57.451Z,24.50
2022-10-13T09:10:25.684Z,24.70
2022-10-13T09:12:53.534Z,24.66
2022-10-13T09:15:20.628Z,24.85
2022-10-13T09:18:10.779Z,24.66
2022-10-13T09:20:36.996Z,24.96
2022-10-13T09:23:39.501Z,24.99
2022-10-13T09:26:10.079Z,25.39
2022-10-13T09:28:38.489Z,25.17
2022-10-13T09:31:10.258Z,25.50
2022-10-13T09:33:40.444Z,25.48
2022-10-13T09:36:12.006Z,25.84
2022-10-13T09:38:39.650Z,24.29
2022-10-13T09:41:13.417Z,25.16
2022-10-13T09:43:58.149Z,25.18
2022-10-13T09:46:36.967Z,25.66
2022-10-13T09:49:34.701Z,25.52
2022-10-13T09:52:13.792Z,26.04
2022-10-13T09:54:39.921Z,26.38
2022-10-13T09:57:13.648Z,26.14
2022-10-13T09:59:56.143Z,26.35
2022-10-13T10:03:05.073Z,26.57
2022-10-13T10:05:40.958Z,25.60
2022-10-13T10:08:28.907Z,26.39
2022-10-13T10:11:11.255Z,26.50
2022-10-13T10:13:37.472Z,26.53
2022-10-13T10:16:09.967Z,26.24
2022-10-13T10:18:41.018Z,26.33
2022-10-13T10:21:36.273Z,26.45
2022-10-13T10:24:19.563Z,25.74
2022-10-13T10:26:50.131Z,24.74
2022-10-13T10:29:40.763Z,24.00
2022-10-13T10:32:29.275Z,24.28
2022-10-13T10:34:55.401Z,23.17
2022-10-13T10:37:38.877Z,22.89
2022-10-13T10:40:13.558Z,23.18
2022-10-13T10:43:19.328Z,24.37
2022-10-13T10:45:47.571Z,25.08
2022-10-13T10:48:37.975Z,25.43
2022-10-13T10:51:07.247Z,26.11
2022-10-13T10:53:40.052Z,25.98
2022-10-13T10:56:15.533Z,26.92
2022-10-13T10:58:53.155Z,26.53
2022-10-13T11:01:30.859Z,26.44
2022-10-13T11:04:04.067Z,26.35
2022-10-13T11:06:34.665Z,26.42
2022-10-13T11:09:01.345Z,26.36
2022-10-13T11:11:34.850Z,26.52
2022-10-13T11:14:07.357Z,26.51
2022-10-13T11:16:35.925Z,26.73
2022-10-13T11:19:22.952Z,26.87
2022-10-13T11:21:55.680Z,25.62
2022-10-13T11:24:34.086Z,23.99
2022-10-13T11:27:27.807Z,22.91
2022-10-13T11:29:57.797Z,22.34
2022-10-13T11:32:41.101Z,21.88
2022-10-13T11:35:10.664Z,21.23
2022-10-13T11:37:40.358Z,20.68
2022-10-13T11:40:16.524Z,20.39
2022-10-13T11:43:14.436Z,20.53
2022-10-13T11:45:59.217Z,20.43
2022-10-13T11:48:44.412Z,20.73
2022-10-13T11:51:32.070Z,20.35
2022-10-13T11:54:13.629Z,20.05
2022-10-13T11:56:49.115Z,19.71
2022-10-13T11:59:33.595Z,19.37
2022-10-13T12:02:11.680Z,18.79
2022-10-13T12:04:44.166Z,18.51
2022-10-13T12:07:15.563Z,18.39
2022-10-13T12:09:51.255Z,18.33
2022-10-13T12:12:21.093Z,18.34
2022-10-13T12:14:53.417Z,18.33
2022-10-13T12:17:29.662Z,18.35
2022-10-13T12:19:59.128Z,18.42
2022-10-13T12:22:28.662Z,18.31
2022-10-13T12:25:01.897Z,18.14
2022-10-13T12:27:32.699Z,18.10
2022-10-13T12:30:00.746Z,18.07
2022-10-13T12:32:29.487Z,18.03
2022-10-13T12:34:56.373Z,18.08
2022-10-13T12:37:31.063Z,18.11
2022-10-13T12:39:58.524Z,18.16
2022-10-13T12:42:28.881Z,18.09
2022-10-13T12:44:55.618Z,18.04
2022-10-13T12:47:44.163Z,18.02
2022-10-13T12:50:25.339Z,18.19
2022-10-13T12:53:21.937Z,18.38
2022-10-13T12:55:50.382Z,18.57
2022-10-13T12:58:24.506Z,18.92
2022-10-13T13:01:20.354Z,19.00
2022-10-13T13:03:54.443Z,18.92
2022-10-13T13:06:25.315Z,18.89
2022-10-13T13:09:14.606Z,18.71
2022-10-13T13:11:41.051Z,18.34
2022-10-13T13:14:25.574Z,18.09
2022-10-13T13:17:12.991Z,18.03
2022-10-13T13:19:41.875Z,17.78
2022-10-13T13:22:09.528Z,17.83
2022-10-13T13:24:40.166Z,17.77
2022-10-13T13:27:28.503Z,17.66
2022-10-13T13:29:55.879Z,17.63
2022-10-13T13:32:24.957Z,17.55
2022-10-13T13:34:51.329Z,17.68
2022-10-13T13:37:31.206Z,17.92
2022-10-13T13:39:58.977Z,17.90
2022-10-13T13:42:26.744Z,17.84
2022-10-13T13:44:52.962Z,17.68
2022-10-13T13:47:22.711Z,17.48
2022-10-13T13:49:50.801Z,17.44
2022-10-13T13:52:18.251Z,17.30
2022-10-13T13:54:45.137Z,17.09
2022-10-13T13:57:12.213Z,17.14
2022-10-13T13:59:39.226Z,17.08
2022-10-13T14:02:07.110Z,16.97
2022-10-13T14:04:34.433Z,16.88
2022-10-13T14:07:00.722Z,16.77
2022-10-13T14:09:27.029Z,16.73
2022-10-13T14:11:53.589Z,16.72
2022-10-13T14:14:19.857Z,16.67
2022-10-13T14:16:46.135Z,16.66
2022-10-13T14:19:12.629Z,16.57
2022-10-13T14:21:38.977Z,16.52
2022-10-13T14:24:10.212Z,16.47
2022-10-13T14:26:36.749Z,16.39
2022-10-13T14:29:04.188Z,16.19
2022-10-13T14:31:30.834Z,16.16
2022-10-13T14:33:57.411Z,15.99
2022-10-13T14:36:24.681Z,15.75
2022-10-13T14:38:51.417Z,15.70
2022-10-13T14:41:18.910Z,15.58
2022-10-13T14:43:54.803Z,15.32
2022-10-13T14:46:21.833Z,15.28
2022-10-13T14:48:48.559Z,15.22
2022-10-13T14:51:14.935Z,15.17
2022-10-13T14:53:43.939Z,15.04
2022-10-13T14:56:17.593Z,14.92
2022-10-13T14:58:49.850Z,14.84
2022-10-13T15:01:16.897Z,14.75
2022-10-13T15:03:43.636Z,14.64
2022-10-13T15:06:17.467Z,14.41
2022-10-13T15:08:44.071Z,14.40
2022-10-13T15:11:11.540Z,14.20
2022-10-13T15:13:37.922Z,14.10
2022-10-13T15:16:04.715Z,14.08
2022-10-13T15:18:31.978Z,13.96
2022-10-13T15:20:58.739Z,13.88
2022-10-13T15:23:25.702Z,13.72
2022-10-13T15:25:57.671Z,13.68
2022-10-13T15:28:25.453Z,13.59
2022-10-13T15:30:52.451Z,13.49
2022-10-13T15:33:20.676Z,13.41
2022-10-13T15:35:50.907Z,13.31
2022-10-13T15:38:18.879Z,13.10
2022-10-13T15:40:45.671Z,13.16
2022-10-13T15:43:12.202Z,13.09
2022-10-13T15:45:38.822Z,13.01
2022-10-13T15:48:06.151Z,12.94
2022-10-13T15:50:32.598Z,12.87
2022-10-13T15:52:59.532Z,12.78
2022-10-13T15:55:25.914Z,12.70
2022-10-13T15:57:52.247Z,12.61
2022-10-13T16:00:18.876Z,12.54
2022-10-13T16:02:49.148Z,12.29
2022-10-13T16:05:15.452Z,12.37
2022-10-13T16:07:42.057Z,12.20
2022-10-13T16:10:10.393Z,12.23
2022-10-13T16:12:36.700Z,12.17
2022-10-13T16:15:03.002Z,12.10
2022-10-13T16:17:29.543Z,12.04
2022-10-13T16:19:55.823Z,11.91
2022-10-13T16:22:22.512Z,11.81
2022-10-13T16:24:49.382Z,11.85
2022-10-13T16:27:15.796Z,11.78
2022-10-13T16:29:42.023Z,11.72
2022-10-13T16:32:08.663Z,11.61
2022-10-13T16:34:34.904Z,11.58
2022-10-13T16:37:01.152Z,11.51
2022-10-13T16:39:28.479Z,11.45
2022-10-13T16:41:54.895Z,11.39
2022-10-13T16:44:23.895Z,11.34
2022-10-13T16:46:52.398Z,11.21
2022-10-13T16:49:18.636Z,11.23
2022-10-13T16:51:44.935Z,11.19
2022-10-13T16:54:11.471Z,10.97
2022-10-13T16:56:37.794Z,11.03
2022-10-13T16:59:05.961Z,11.02
2022-10-13T17:01:34.252Z,10.96
2022-10-13T17:04:00.807Z,10.90
2022-10-13T17:06:28.501Z,10.74
2022-10-13T17:08:57.284Z,10.85
2022-10-13T17:11:26.163Z,10.84
2022-10-13T17:13:52.480Z,10.80
2022-10-13T17:16:19.459Z,10.77
2022-10-13T17:18:46.476Z,10.67
2022-10-13T17:21:15.402Z,10.60
2022-10-13T17:23:47.363Z,10.64
2022-10-13T17:26:16.444Z,10.43
2022-10-13T17:28:43.158Z,10.41
2022-10-13T17:31:15.624Z,10.48
2022-10-13T17:33:42.872Z,10.43
2022-10-13T17:36:19.931Z,10.32
2022-10-13T17:38:47.610Z,10.33
2022-10-13T17:41:14.978Z,10.21
2022-10-13T17:43:43.205Z,10.24
2022-10-13T17:46:35.041Z,10.18
2022-10-13T17:49:00.774Z,10.06
2022-10-13T17:51:27.905Z,9.99
2022-10-13T17:53:54.403Z,10.04
2022-10-13T17:56:23.116Z,9.98
2022-10-13T17:58:50.959Z,9.95
2022-10-13T18:01:28.635Z,9.91
2022-10-13T18:03:56.939Z,9.88
2022-10-13T18:06:25.343Z,9.78
2022-10-13T18:08:51.742Z,9.80
2022-10-13T18:11:20.749Z,9.77
2022-10-13T18:13:47.560Z,9.73
2022-10-13T18:16:16.109Z,9.70
2022-10-13T18:18:46.420Z,9.67
2022-10-13T18:21:14.805Z,9.63
2022-10-13T18:23:42.993Z,9.60
2022-10-13T18:26:12.372Z,9.57
2022-10-13T18:28:45.528Z,9.53
2022-10-13T18:31:16.999Z,9.51
2022-10-13T18:33:43.708Z,9.47
2022-10-13T18:36:19.919Z,9.34
2022-10-13T18:38:47.429Z,9.43
2022-10-13T18:41:14.293Z,9.20
2022-10-13T18:43:40.567Z,9.34
2022-10-13T18:46:07.195Z,9.32
2022-10-13T18:48:34.299Z,9.28
2022-10-13T18:51:19.215Z,9.26
2022-10-13T18:53:47.656Z,9.12
2022-10-13T18:56:17.561Z,9.19
2022-10-13T19:02:41.362Z,9.15
2022-10-13T19:05:09.712Z,9.11
2022-10-13T19:07:39.029Z,9.00
2022-10-13T19:10:06.110Z,9.02
2022-10-13T19:12:32.649Z,9.00
2022-10-13T19:14:58.894Z,8.88
2022-10-13T19:17:25.160Z,8.86
2022-10-13T19:19:51.754Z,8.93
2022-10-13T19:22:18.079Z,8.89
2022-10-13T19:24:44.316Z,8.86
2022-10-13T19:27:11.532Z,8.83
2022-10-13T19:29:38.690Z,8.81
2022-10-13T19:32:05.108Z,8.82
2022-10-13T19:34:32.537Z,8.82
2022-10-13T19:36:59.390Z,8.83
2022-10-13T19:39:26.661Z,8.74
2022-10-13T19:41:54.802Z,8.81
2022-10-13T19:44:22.612Z,8.81
2022-10-13T19:46:49.365Z,8.79
2022-10-13T19:49:18.775Z,8.76
2022-10-13T19:51:46.085Z,8.75
2022-10-13T19:54:12.835Z,8.73
2022-10-13T19:56:42.892Z,8.73
2022-10-13T19:59:09.144Z,8.74
2022-10-13T20:01:40.907Z,8.75
2022-10-13T20:04:11.687Z,8.76
2022-10-13T20:06:39.354Z,8.78
2022-10-13T20:09:05.820Z,8.81
2022-10-13T20:11:32.346Z,8.87
2022-10-13T20:13:58.593Z,8.78
2022-10-13T20:16:25.443Z,8.96
2022-10-13T20:18:58.439Z,8.82
2022-10-13T20:21:25.908Z,8.90
2022-10-13T20:23:52.791Z,8.92
2022-10-13T20:26:19.843Z,9.03
2022-10-13T20:28:47.543Z,9.06
2022-10-13T20:31:15.935Z,9.10
2022-10-13T20:33:42.630Z,9.08
2022-10-13T20:36:12.557Z,9.15
2022-10-13T20:38:39.113Z,9.20
2022-10-13T20:41:26.266Z,9.24
2022-10-13T20:43:54.175Z,9.27
2022-10-13T20:46:21.660Z,9.31
2022-10-13T20:49:09.992Z,9.36
2022-10-13T20:51:35.140Z,9.31
2022-10-13T20:54:01.391Z,9.41
2022-10-13T20:56:27.658Z,9.47
2022-10-13T20:58:54.480Z,9.51
2022-10-13T21:01:22.249Z,9.51
2022-10-13T21:03:54.972Z,9.55
2022-10-13T21:06:22.547Z,9.51
2022-10-13T21:08:48.951Z,9.65
2022-10-13T21:11:16.633Z,9.59
2022-10-13T21:13:44.593Z,9.57
2022-10-13T21:16:22.951Z,9.72
2022-10-13T21:18:51.689Z,9.72
2022-10-13T21:21:20.432Z,9.74
2022-10-13T21:23:51.606Z,9.77
2022-10-13T21:26:21.708Z,9.64
2022-10-13T21:28:48.848Z,9.84
2022-10-13T21:31:15.830Z,9.82
2022-10-13T21:33:43.426Z,9.85
2022-10-13T21:36:15.195Z,9.83
2022-10-13T21:38:42.935Z,9.83
2022-10-13T21:41:10.224Z,9.65
2022-10-13T21:43:36.696Z,9.71
2022-10-13T21:46:11.302Z,9.67
2022-10-13T21:48:41.992Z,9.62
2022-10-13T21:51:17.239Z,9.57
2022-10-13T21:53:44.131Z,9.52
2022-10-13T21:56:12.060Z,9.41
2022-10-13T21:58:38.635Z,9.35
2022-10-13T22:01:06.089Z,9.38
2022-10-13T22:03:33.165Z,9.34
2022-10-13T22:06:06.943Z,9.32
2022-10-13T22:08:38.675Z,9.16
2022-10-13T22:11:09.360Z,9.15
2022-10-13T22:13:36.717Z,9.17
2022-10-13T22:16:12.032Z,9.00
2022-10-13T22:18:40.414Z,9.01
2022-10-13T22:21:08.760Z,8.90
2022-10-13T22:23:35.002Z,8.82
2022-10-13T22:26:01.606Z,8.57
2022-10-13T22:28:27.942Z,8.49
2022-10-13T22:30:54.215Z,8.54
2022-10-13T22:33:20.786Z,8.37
2022-10-13T22:35:52.407Z,8.35
2022-10-13T22:38:20.848Z,8.31
2022-10-13T22:40:47.367Z,8.20
2022-10-13T22:43:13.565Z,8.11
2022-10-13T22:45:39.819Z,8.08
2022-10-13T22:48:06.359Z,8.04
2022-10-13T22:50:34.440Z,7.92
2022-10-13T22:53:00.672Z,7.98
2022-10-13T22:55:27.192Z,7.99
2022-10-13T22:57:53.499Z,7.99
2022-10-13T23:00:19.852Z,7.98
2022-10-13T23:02:48.255Z,8.00
2022-10-13T23:05:14.616Z,7.94
2022-10-13T23:07:40.848Z,7.87
2022-10-13T23:10:07.821Z,7.72
2022-10-13T23:12:34.060Z,7.77
2022-10-13T23:15:00.310Z,7.70
2022-10-13T23:17:26.830Z,7.66
2022-10-13T23:19:54.283Z,7.69
2022-10-13T23:22:20.504Z,7.69
2022-10-13T23:24:48.608Z,7.65
2022-10-13T23:27:15.013Z,7.62
2022-10-13T23:29:41.259Z,7.56
2022-10-13T23:32:09.869Z,7.45
2022-10-13T23:34:36.397Z,7.48
2022-10-13T23:37:03.943Z,7.46
2022-10-13T23:39:31.120Z,7.42
2022-10-13T23:41:57.794Z,7.29
2022-10-13T23:44:25.099Z,7.35
2022-10-13T23:46:51.959Z,7.22
2022-10-13T23:49:20.532Z,7.37
2022-10-13T23:51:46.785Z,7.38
2022-10-13T23:54:13.349Z,7.30
2022-10-13T23:56:39.600Z,7.41
2022-10-13T23:59:05.984Z,7.35
